sensor_id;sensor_type;location;lat;lon;timestamp;noise_LAeq;noise_LA_min;noise_LA_max;noise_LA01;noise_LA95
70740;Laerm;58330;51.888;11.052;2022-08-21T00:02:00;38.31;30.13;47.61;;
70740;Laerm;58330;51.888;11.052;2022-08-21T00:04:28;35.89;30.04;42.28;;
70740;Laerm;58330;51.888;11.052;2022-08-21T00:06:54;36.51;29.01;43.33;;
70740;Laerm;58330;51.888;11.052;2022-08-21T00:09:21;35.60;28.90;56.93;;
70740;Laerm;58330;51.888;11.052;2022-08-21T00:11:47;35.11;28.81;47.61;;
70740;Laerm;58330;51.888;11.052;2022-08-21T00:14:13;37.09;29.59;45.93;;
70740;Laerm;58330;51.888;11.052;2022-08-21T00:16:40;35.80;28.68;42.45;;
70740;Laerm;58330;51.888;11.052;2022-08-21T00:19:07;36.49;29.00;42.61;;
70740;Laerm;58330;51.888;11.052;2022-08-21T00:21:34;35.49;28.68;41.82;;
70740;Laerm;58330;51.888;11.052;2022-08-21T00:24:01;34.79;28.20;40.29;;
70740;Laerm;58330;51.888;11.052;2022-08-21T00:26:28;36.15;28.56;41.85;;
70740;Laerm;58330;51.888;11.052;2022-08-21T00:28:54;43.57;29.00;57.86;;
70740;Laerm;58330;51.888;11.052;2022-08-21T00:31:20;40.72;28.74;53.46;;
70740;Laerm;58330;51.888;11.052;2022-08-21T00:33:46;35.78;29.06;42.62;;
70740;Laerm;58330;51.888;11.052;2022-08-21T00:36:13;34.76;28.38;43.85;;
70740;Laerm;58330;51.888;11.052;2022-08-21T00:38:40;37.26;30.50;52.03;;
70740;Laerm;58330;51.888;11.052;2022-08-21T00:41:08;33.65;28.68;43.44;;
70740;Laerm;58330;51.888;11.052;2022-08-21T00:43:36;38.27;28.18;64.64;;
70740;Laerm;58330;51.888;11.052;2022-08-21T00:46:03;32.93;28.32;42.18;;
70740;Laerm;58330;51.888;11.052;2022-08-21T00:48:30;33.69;28.17;42.82;;
70740;Laerm;58330;51.888;11.052;2022-08-21T00:50:57;35.49;28.29;41.86;;
70740;Laerm;58330;51.888;11.052;2022-08-21T00:53:24;35.64;28.60;41.35;;
70740;Laerm;58330;51.888;11.052;2022-08-21T00:55:52;36.69;28.15;44.69;;
70740;Laerm;58330;51.888;11.052;2022-08-21T00:58:19;35.26;28.00;40.17;;
70740;Laerm;58330;51.888;11.052;2022-08-21T01:00:46;37.82;28.58;49.96;;
70740;Laerm;58330;51.888;11.052;2022-08-21T01:03:15;42.48;29.79;58.32;;
70740;Laerm;58330;51.888;11.052;2022-08-21T01:05:42;37.21;28.96;47.43;;
70740;Laerm;58330;51.888;11.052;2022-08-21T01:08:08;32.83;28.20;43.81;;
70740;Laerm;58330;51.888;11.052;2022-08-21T01:10:36;45.26;28.52;62.13;;
70740;Laerm;58330;51.888;11.052;2022-08-21T01:13:04;31.86;27.88;41.01;;
70740;Laerm;58330;51.888;11.052;2022-08-21T01:15:32;32.13;27.89;39.15;;
70740;Laerm;58330;51.888;11.052;2022-08-21T01:17:59;33.00;27.89;42.63;;
70740;Laerm;58330;51.888;11.052;2022-08-21T01:20:25;31.26;27.78;38.33;;
70740;Laerm;58330;51.888;11.052;2022-08-21T01:22:53;31.66;27.56;42.09;;
70740;Laerm;58330;51.888;11.052;2022-08-21T01:25:19;31.43;27.22;39.40;;
70740;Laerm;58330;51.888;11.052;2022-08-21T01:27:46;32.36;27.47;43.07;;
70740;Laerm;58330;51.888;11.052;2022-08-21T01:30:14;32.93;27.26;42.86;;
70740;Laerm;58330;51.888;11.052;2022-08-21T01:32:41;33.62;27.55;44.90;;
70740;Laerm;58330;51.888;11.052;2022-08-21T01:35:08;30.96;27.42;39.82;;
70740;Laerm;58330;51.888;11.052;2022-08-21T01:37:34;32.47;27.21;44.36;;
70740;Laerm;58330;51.888;11.052;2022-08-21T01:40:02;30.25;27.19;52.22;;
70740;Laerm;58330;51.888;11.052;2022-08-21T01:42:29;34.92;27.40;44.26;;
70740;Laerm;58330;51.888;11.052;2022-08-21T01:44:55;31.10;27.41;38.19;;
70740;Laerm;58330;51.888;11.052;2022-08-21T01:47:22;32.23;27.12;44.63;;
70740;Laerm;58330;51.888;11.052;2022-08-21T01:49:48;32.13;27.22;45.87;;
70740;Laerm;58330;51.888;11.052;2022-08-21T01:52:14;29.95;27.39;37.87;;
70740;Laerm;58330;51.888;11.052;2022-08-21T01:54:41;39.02;27.87;63.67;;
70740;Laerm;58330;51.888;11.052;2022-08-21T01:57:09;31.83;27.39;52.19;;
70740;Laerm;58330;51.888;11.052;2022-08-21T01:59:35;32.28;27.54;44.22;;
70740;Laerm;58330;51.888;11.052;2022-08-21T02:02:02;37.86;28.69;52.15;;
70740;Laerm;58330;51.888;11.052;2022-08-21T02:04:29;31.60;27.59;40.75;;
70740;Laerm;58330;51.888;11.052;2022-08-21T02:06:56;31.65;27.38;40.95;;
70740;Laerm;58330;51.888;11.052;2022-08-21T02:09:22;31.81;27.65;41.35;;
70740;Laerm;58330;51.888;11.052;2022-08-21T02:11:48;32.17;28.64;37.02;;
70740;Laerm;58330;51.888;11.052;2022-08-21T02:14:16;32.80;28.93;48.37;;
70740;Laerm;58330;51.888;11.052;2022-08-21T02:16:43;31.47;28.43;38.75;;
70740;Laerm;58330;51.888;11.052;2022-08-21T02:19:10;32.10;28.87;41.83;;
70740;Laerm;58330;51.888;11.052;2022-08-21T02:21:36;30.75;28.25;36.90;;
70740;Laerm;58330;51.888;11.052;2022-08-21T02:24:03;33.50;28.08;49.28;;
70740;Laerm;58330;51.888;11.052;2022-08-21T02:26:29;31.27;27.64;45.01;;
70740;Laerm;58330;51.888;11.052;2022-08-21T02:28:56;31.18;27.99;40.31;;
70740;Laerm;58330;51.888;11.052;2022-08-21T02:31:23;29.64;27.51;33.84;;
70740;Laerm;58330;51.888;11.052;2022-08-21T02:33:49;33.95;29.00;42.19;;
70740;Laerm;58330;51.888;11.052;2022-08-21T02:36:16;30.51;27.87;40.35;;
70740;Laerm;58330;51.888;11.052;2022-08-21T02:38:42;30.49;27.52;45.11;;
70740;Laerm;58330;51.888;11.052;2022-08-21T02:41:10;32.46;27.91;46.30;;
70740;Laerm;58330;51.888;11.052;2022-08-21T02:43:37;31.35;27.44;46.10;;
70740;Laerm;58330;51.888;11.052;2022-08-21T02:46:04;33.10;27.73;52.70;;
70740;Laerm;58330;51.888;11.052;2022-08-21T02:48:32;32.96;27.63;57.02;;
70740;Laerm;58330;51.888;11.052;2022-08-21T02:51:01;32.64;28.22;43.98;;
70740;Laerm;58330;51.888;11.052;2022-08-21T02:53:28;31.65;28.13;46.07;;
70740;Laerm;58330;51.888;11.052;2022-08-21T02:55:55;34.28;27.77;43.54;;
70740;Laerm;58330;51.888;11.052;2022-08-21T02:58:23;34.82;27.48;55.06;;
70740;Laerm;58330;51.888;11.052;2022-08-21T03:00:50;33.66;27.62;42.59;;
70740;Laerm;58330;51.888;11.052;2022-08-21T03:03:16;35.35;27.86;47.72;;
70740;Laerm;58330;51.888;11.052;2022-08-21T03:05:44;28.93;27.45;33.63;;
70740;Laerm;58330;51.888;11.052;2022-08-21T03:08:11;33.74;27.32;47.70;;
70740;Laerm;58330;51.888;11.052;2022-08-21T03:10:39;32.84;26.99;44.56;;
70740;Laerm;58330;51.888;11.052;2022-08-21T03:13:06;31.22;27.72;41.16;;
70740;Laerm;58330;51.888;11.052;2022-08-21T03:15:32;43.41;28.20;56.33;;
70740;Laerm;58330;51.888;11.052;2022-08-21T03:17:59;35.41;27.96;48.55;;
70740;Laerm;58330;51.888;11.052;2022-08-21T03:20:25;33.60;27.80;42.66;;
70740;Laerm;58330;51.888;11.052;2022-08-21T03:22:54;34.48;29.02;43.41;;
70740;Laerm;58330;51.888;11.052;2022-08-21T03:25:20;33.67;28.26;46.78;;
70740;Laerm;58330;51.888;11.052;2022-08-21T03:27:47;31.69;27.72;42.43;;
70740;Laerm;58330;51.888;11.052;2022-08-21T03:30:13;31.79;27.56;41.00;;
70740;Laerm;58330;51.888;11.052;2022-08-21T03:32:39;33.17;27.77;43.34;;
70740;Laerm;58330;51.888;11.052;2022-08-21T03:35:06;33.92;27.79;44.66;;
70740;Laerm;58330;51.888;11.052;2022-08-21T03:37:33;33.71;28.52;48.03;;
70740;Laerm;58330;51.888;11.052;2022-08-21T03:40:01;31.35;28.24;39.71;;
70740;Laerm;58330;51.888;11.052;2022-08-21T03:42:27;33.55;28.68;45.44;;
70740;Laerm;58330;51.888;11.052;2022-08-21T03:44:54;32.33;28.78;42.41;;
70740;Laerm;58330;51.888;11.052;2022-08-21T03:47:20;32.22;28.58;43.33;;
70740;Laerm;58330;51.888;11.052;2022-08-21T03:49:46;33.43;28.26;44.89;;
70740;Laerm;58330;51.888;11.052;2022-08-21T03:52:13;31.09;28.11;46.38;;
70740;Laerm;58330;51.888;11.052;2022-08-21T03:54:40;33.03;28.26;46.31;;
70740;Laerm;58330;51.888;11.052;2022-08-21T03:57:08;30.97;28.10;37.50;;
70740;Laerm;58330;51.888;11.052;2022-08-21T03:59:35;30.84;28.23;45.73;;
70740;Laerm;58330;51.888;11.052;2022-08-21T04:02:02;35.78;27.80;53.26;;
70740;Laerm;58330;51.888;11.052;2022-08-21T04:04:29;32.72;28.41;40.05;;
70740;Laerm;58330;51.888;11.052;2022-08-21T04:06:56;38.00;28.65;60.45;;
70740;Laerm;58330;51.888;11.052;2022-08-21T04:09:22;42.12;29.06;60.79;;
70740;Laerm;58330;51.888;11.052;2022-08-21T04:11:49;45.79;29.73;59.45;;
70740;Laerm;58330;51.888;11.052;2022-08-21T04:14:17;34.62;29.38;55.19;;
70740;Laerm;58330;51.888;11.052;2022-08-21T04:16:43;34.29;29.57;47.95;;
70740;Laerm;58330;51.888;11.052;2022-08-21T04:19:10;33.55;29.49;46.07;;
70740;Laerm;58330;51.888;11.052;2022-08-21T04:21:37;33.86;29.92;44.03;;
70740;Laerm;58330;51.888;11.052;2022-08-21T04:24:03;38.19;30.71;54.23;;
70740;Laerm;58330;51.888;11.052;2022-08-21T04:26:30;35.57;30.56;46.34;;
70740;Laerm;58330;51.888;11.052;2022-08-21T04:28:56;33.66;29.47;41.33;;
70740;Laerm;58330;51.888;11.052;2022-08-21T04:31:24;36.78;29.20;54.38;;
70740;Laerm;58330;51.888;11.052;2022-08-21T04:33:50;38.02;30.11;52.69;;
70740;Laerm;58330;51.888;11.052;2022-08-21T04:36:17;35.50;29.43;51.34;;
70740;Laerm;58330;51.888;11.052;2022-08-21T04:38:43;34.73;29.52;49.53;;
70740;Laerm;58330;51.888;11.052;2022-08-21T04:41:09;44.43;28.83;61.14;;
70740;Laerm;58330;51.888;11.052;2022-08-21T04:43:36;37.99;29.17;55.42;;
70740;Laerm;58330;51.888;11.052;2022-08-21T04:46:03;35.82;29.76;49.94;;
70740;Laerm;58330;51.888;11.052;2022-08-21T04:48:31;45.92;31.07;59.75;;
70740;Laerm;58330;51.888;11.052;2022-08-21T04:50:59;43.99;29.06;59.18;;
70740;Laerm;58330;51.888;11.052;2022-08-21T04:53:30;34.62;29.21;52.45;;
70740;Laerm;58330;51.888;11.052;2022-08-21T04:55:58;32.74;29.51;43.87;;
70740;Laerm;58330;51.888;11.052;2022-08-21T04:58:26;31.73;29.58;39.35;;
70740;Laerm;58330;51.888;11.052;2022-08-21T05:00:53;35.85;29.61;48.07;;
70740;Laerm;58330;51.888;11.052;2022-08-21T05:03:20;36.77;31.42;47.32;;
70740;Laerm;58330;51.888;11.052;2022-08-21T05:05:47;36.58;29.84;53.97;;
70740;Laerm;58330;51.888;11.052;2022-08-21T05:08:15;35.30;29.55;45.47;;
70740;Laerm;58330;51.888;11.052;2022-08-21T05:10:44;33.75;30.36;47.67;;
70740;Laerm;58330;51.888;11.052;2022-08-21T05:13:10;42.02;30.09;55.32;;
70740;Laerm;58330;51.888;11.052;2022-08-21T05:15:37;35.61;30.06;43.03;;
70740;Laerm;58330;51.888;11.052;2022-08-21T05:18:03;32.78;30.27;40.84;;
70740;Laerm;58330;51.888;11.052;2022-08-21T05:20:30;33.00;29.61;38.80;;
70740;Laerm;58330;51.888;11.052;2022-08-21T05:22:58;47.52;30.29;62.62;;
70740;Laerm;58330;51.888;11.052;2022-08-21T05:25:24;35.95;30.73;44.68;;
70740;Laerm;58330;51.888;11.052;2022-08-21T05:27:50;41.24;30.38;59.38;;
70740;Laerm;58330;51.888;11.052;2022-08-21T05:30:16;41.27;29.68;58.15;;
70740;Laerm;58330;51.888;11.052;2022-08-21T05:32:43;35.02;29.85;45.35;;
70740;Laerm;58330;51.888;11.052;2022-08-21T05:35:09;33.23;29.41;41.04;;
70740;Laerm;58330;51.888;11.052;2022-08-21T05:37:36;33.77;29.90;43.38;;
70740;Laerm;58330;51.888;11.052;2022-08-21T05:40:04;47.23;31.12;66.05;;
70740;Laerm;58330;51.888;11.052;2022-08-21T05:42:31;49.54;32.75;65.42;;
70740;Laerm;58330;51.888;11.052;2022-08-21T05:44:57;37.41;31.24;49.59;;
70740;Laerm;58330;51.888;11.052;2022-08-21T05:47:23;35.62;30.79;42.81;;
70740;Laerm;58330;51.888;11.052;2022-08-21T05:49:49;43.47;30.80;57.40;;
70740;Laerm;58330;51.888;11.052;2022-08-21T05:52:18;41.21;29.43;66.40;;
70740;Laerm;58330;51.888;11.052;2022-08-21T05:54:44;34.79;28.54;42.31;;
70740;Laerm;58330;51.888;11.052;2022-08-21T05:57:12;32.75;29.21;42.41;;
70740;Laerm;58330;51.888;11.052;2022-08-21T05:59:38;38.46;31.74;50.35;;
70740;Laerm;58330;51.888;11.052;2022-08-21T06:02:04;36.35;30.65;56.80;;
70740;Laerm;58330;51.888;11.052;2022-08-21T06:04:34;38.18;30.52;53.65;;
70740;Laerm;58330;51.888;11.052;2022-08-21T06:07:01;37.35;29.85;55.77;;
70740;Laerm;58330;51.888;11.052;2022-08-21T06:09:27;37.94;30.92;50.05;;
70740;Laerm;58330;51.888;11.052;2022-08-21T06:11:53;43.19;31.23;58.19;;
70740;Laerm;58330;51.888;11.052;2022-08-21T06:14:20;38.74;30.60;50.38;;
70740;Laerm;58330;51.888;11.052;2022-08-21T06:16:47;33.88;29.55;42.39;;
70740;Laerm;58330;51.888;11.052;2022-08-21T06:19:13;36.75;29.60;49.85;;
70740;Laerm;58330;51.888;11.052;2022-08-21T06:21:39;35.18;30.03;46.93;;
70740;Laerm;58330;51.888;11.052;2022-08-21T06:24:05;37.02;30.20;47.51;;
70740;Laerm;58330;51.888;11.052;2022-08-21T06:26:32;40.22;29.65;59.65;;
70740;Laerm;58330;51.888;11.052;2022-08-21T06:28:59;37.64;29.95;55.14;;
70740;Laerm;58330;51.888;11.052;2022-08-21T06:31:26;40.88;30.96;55.23;;
70740;Laerm;58330;51.888;11.052;2022-08-21T06:33:53;39.35;30.91;53.04;;
70740;Laerm;58330;51.888;11.052;2022-08-21T06:36:19;37.50;29.84;49.75;;
70740;Laerm;58330;51.888;11.052;2022-08-21T06:38:46;40.30;30.12;56.66;;
70740;Laerm;58330;51.888;11.052;2022-08-21T06:41:13;41.89;30.10;58.36;;
70740;Laerm;58330;51.888;11.052;2022-08-21T06:43:39;42.18;28.93;55.45;;
70740;Laerm;58330;51.888;11.052;2022-08-21T06:46:05;37.38;31.17;50.64;;
70740;Laerm;58330;51.888;11.052;2022-08-21T06:48:33;39.98;29.93;51.00;;
70740;Laerm;58330;51.888;11.052;2022-08-21T06:51:00;38.90;28.20;58.16;;
70740;Laerm;58330;51.888;11.052;2022-08-21T06:53:26;38.83;28.98;53.65;;
70740;Laerm;58330;51.888;11.052;2022-08-21T06:55:53;38.57;28.85;54.27;;
70740;Laerm;58330;51.888;11.052;2022-08-21T06:58:19;38.35;28.80;50.32;;
70740;Laerm;58330;51.888;11.052;2022-08-21T07:00:46;39.24;28.48;50.83;;
70740;Laerm;58330;51.888;11.052;2022-08-21T07:03:17;39.07;28.61;53.31;;
70740;Laerm;58330;51.888;11.052;2022-08-21T07:05:45;45.34;30.67;60.05;;
70740;Laerm;58330;51.888;11.052;2022-08-21T07:08:11;46.33;31.70;60.72;;
70740;Laerm;58330;51.888;11.052;2022-08-21T07:10:37;37.40;28.89;57.11;;
70740;Laerm;58330;51.888;11.052;2022-08-21T07:13:03;38.75;30.10;51.60;;
70740;Laerm;58330;51.888;11.052;2022-08-21T07:15:30;37.12;29.44;51.55;;
70740;Laerm;58330;51.888;11.052;2022-08-21T07:17:57;37.37;29.59;51.65;;
70740;Laerm;58330;51.888;11.052;2022-08-21T07:20:23;39.70;31.27;56.46;;
70740;Laerm;58330;51.888;11.052;2022-08-21T07:22:51;44.85;29.35;57.97;;
70740;Laerm;58330;51.888;11.052;2022-08-21T07:25:17;43.31;29.40;57.33;;
70740;Laerm;58330;51.888;11.052;2022-08-21T07:27:43;41.86;31.74;57.41;;
70740;Laerm;58330;51.888;11.052;2022-08-21T07:30:10;37.28;29.72;55.27;;
70740;Laerm;58330;51.888;11.052;2022-08-21T07:32:36;35.58;29.17;48.94;;
70740;Laerm;58330;51.888;11.052;2022-08-21T07:35:03;38.33;30.54;48.88;;
70740;Laerm;58330;51.888;11.052;2022-08-21T07:37:29;43.89;29.86;56.97;;
70740;Laerm;58330;51.888;11.052;2022-08-21T07:39:57;42.07;30.32;57.82;;
70740;Laerm;58330;51.888;11.052;2022-08-21T07:42:23;38.60;29.72;55.89;;
70740;Laerm;58330;51.888;11.052;2022-08-21T07:44:49;39.15;30.01;50.21;;
70740;Laerm;58330;51.888;11.052;2022-08-21T07:47:15;42.00;29.54;60.06;;
70740;Laerm;58330;51.888;11.052;2022-08-21T07:49:42;49.04;29.92;67.20;;
70740;Laerm;58330;51.888;11.052;2022-08-21T07:52:08;43.02;29.98;58.18;;
70740;Laerm;58330;51.888;11.052;2022-08-21T07:54:34;48.50;33.16;59.87;;
70740;Laerm;58330;51.888;11.052;2022-08-21T07:57:02;42.09;33.17;54.17;;
70740;Laerm;58330;51.888;11.052;2022-08-21T07:59:28;43.92;31.78;56.21;;
70740;Laerm;58330;51.888;11.052;2022-08-21T08:01:55;39.14;31.98;48.62;;
70740;Laerm;58330;51.888;11.052;2022-08-21T08:04:21;46.06;32.04;59.32;;
70740;Laerm;58330;51.888;11.052;2022-08-21T08:06:47;45.91;33.01;57.86;;
70740;Laerm;58330;51.888;11.052;2022-08-21T08:09:14;49.45;30.15;65.67;;
70740;Laerm;58330;51.888;11.052;2022-08-21T08:11:43;45.50;31.48;58.74;;
70740;Laerm;58330;51.888;11.052;2022-08-21T08:14:11;38.90;30.31;50.99;;
70740;Laerm;58330;51.888;11.052;2022-08-21T08:16:37;45.93;31.43;60.47;;
70740;Laerm;58330;51.888;11.052;2022-08-21T08:19:03;48.18;33.96;60.86;;
70740;Laerm;58330;51.888;11.052;2022-08-21T08:21:30;45.19;34.85;58.28;;
70740;Laerm;58330;51.888;11.052;2022-08-21T08:23:58;41.31;31.61;53.20;;
70740;Laerm;58330;51.888;11.052;2022-08-21T08:26:24;39.16;32.65;47.23;;
70740;Laerm;58330;51.888;11.052;2022-08-21T08:28:50;39.86;32.63;61.23;;
70740;Laerm;58330;51.888;11.052;2022-08-21T08:31:18;42.03;34.24;62.23;;
70740;Laerm;58330;51.888;11.052;2022-08-21T08:33:45;42.66;34.69;54.99;;
70740;Laerm;58330;51.888;11.052;2022-08-21T08:36:14;39.60;32.88;53.64;;
70740;Laerm;58330;51.888;11.052;2022-08-21T08:38:42;40.30;32.94;50.60;;
70740;Laerm;58330;51.888;11.052;2022-08-21T08:41:18;42.87;35.01;54.42;;
70740;Laerm;58330;51.888;11.052;2022-08-21T08:43:49;40.47;35.17;48.91;;
70740;Laerm;58330;51.888;11.052;2022-08-21T08:46:17;45.46;34.08;61.33;;
70740;Laerm;58330;51.888;11.052;2022-08-21T08:48:47;47.36;35.38;61.50;;
70740;Laerm;58330;51.888;11.052;2022-08-21T08:51:16;47.39;31.53;62.80;;
70740;Laerm;58330;51.888;11.052;2022-08-21T08:53:47;45.63;32.15;61.80;;
70740;Laerm;58330;51.888;11.052;2022-08-21T08:56:15;41.55;33.70;50.15;;
70740;Laerm;58330;51.888;11.052;2022-08-21T08:58:44;51.33;32.55;72.00;;
70740;Laerm;58330;51.888;11.052;2022-08-21T09:01:11;39.53;32.16;50.43;;
70740;Laerm;58330;51.888;11.052;2022-08-21T09:03:39;41.08;32.77;57.76;;
70740;Laerm;58330;51.888;11.052;2022-08-21T09:06:09;45.69;31.71;63.95;;
70740;Laerm;58330;51.888;11.052;2022-08-21T09:08:42;43.75;34.51;56.41;;
70740;Laerm;58330;51.888;11.052;2022-08-21T09:11:15;42.67;31.16;57.41;;
70740;Laerm;58330;51.888;11.052;2022-08-21T09:13:50;45.38;33.79;60.54;;
70740;Laerm;58330;51.888;11.052;2022-08-21T09:16:23;47.74;33.76;60.29;;
70740;Laerm;58330;51.888;11.052;2022-08-21T09:18:54;39.63;32.48;49.63;;
70740;Laerm;58330;51.888;11.052;2022-08-21T09:21:28;48.83;35.30;63.26;;
70740;Laerm;58330;51.888;11.052;2022-08-21T09:23:59;44.56;33.54;64.30;;
70740;Laerm;58330;51.888;11.052;2022-08-21T09:26:29;42.55;33.86;57.75;;
70740;Laerm;58330;51.888;11.052;2022-08-21T09:28:58;48.11;31.56;60.18;;
70740;Laerm;58330;51.888;11.052;2022-08-21T09:31:26;44.51;33.12;55.20;;
70740;Laerm;58330;51.888;11.052;2022-08-21T09:33:56;39.97;31.77;61.89;;
70740;Laerm;58330;51.888;11.052;2022-08-21T09:36:24;38.94;32.02;46.68;;
70740;Laerm;58330;51.888;11.052;2022-08-21T09:38:53;39.60;33.10;50.46;;
70740;Laerm;58330;51.888;11.052;2022-08-21T09:41:27;39.55;32.38;54.51;;
70740;Laerm;58330;51.888;11.052;2022-08-21T09:43:54;47.99;36.25;65.44;;
70740;Laerm;58330;51.888;11.052;2022-08-21T09:46:21;45.60;34.70;61.94;;
70740;Laerm;58330;51.888;11.052;2022-08-21T09:48:49;47.43;32.63;64.60;;
70740;Laerm;58330;51.888;11.052;2022-08-21T09:51:16;40.53;33.99;47.48;;
70740;Laerm;58330;51.888;11.052;2022-08-21T09:53:46;43.06;32.32;55.51;;
70740;Laerm;58330;51.888;11.052;2022-08-21T09:56:18;48.84;34.22;65.21;;
70740;Laerm;58330;51.888;11.052;2022-08-21T09:59:12;43.97;33.25;57.45;;
70740;Laerm;58330;51.888;11.052;2022-08-21T10:01:41;45.72;34.17;58.28;;
70740;Laerm;58330;51.888;11.052;2022-08-21T10:04:08;39.25;35.28;44.12;;
70740;Laerm;58330;51.888;11.052;2022-08-21T10:06:35;41.09;31.76;53.04;;
70740;Laerm;58330;51.888;11.052;2022-08-21T10:09:05;42.30;32.74;55.48;;
70740;Laerm;58330;51.888;11.052;2022-08-21T10:11:33;40.55;31.96;48.23;;
70740;Laerm;58330;51.888;11.052;2022-08-21T10:14:05;40.40;33.48;52.09;;
70740;Laerm;58330;51.888;11.052;2022-08-21T10:16:37;43.64;32.80;60.10;;
70740;Laerm;58330;51.888;11.052;2022-08-21T10:19:08;37.60;31.81;51.03;;
70740;Laerm;58330;51.888;11.052;2022-08-21T10:21:39;39.25;31.67;54.36;;
70740;Laerm;58330;51.888;11.052;2022-08-21T10:24:09;42.49;32.53;54.81;;
70740;Laerm;58330;51.888;11.052;2022-08-21T10:26:43;39.81;31.42;55.31;;
70740;Laerm;58330;51.888;11.052;2022-08-21T10:29:17;42.56;31.69;60.77;;
70740;Laerm;58330;51.888;11.052;2022-08-21T10:31:49;46.60;33.53;58.39;;
70740;Laerm;58330;51.888;11.052;2022-08-21T10:34:23;47.23;31.50;60.54;;
70740;Laerm;58330;51.888;11.052;2022-08-21T10:36:58;44.26;29.59;61.55;;
70740;Laerm;58330;51.888;11.052;2022-08-21T10:39:28;45.23;32.77;59.95;;
70740;Laerm;58330;51.888;11.052;2022-08-21T10:42:09;44.01;31.61;57.06;;
70740;Laerm;58330;51.888;11.052;2022-08-21T10:44:39;46.72;33.10;58.15;;
70740;Laerm;58330;51.888;11.052;2022-08-21T10:47:12;40.06;31.40;55.25;;
70740;Laerm;58330;51.888;11.052;2022-08-21T10:49:42;43.08;31.45;59.19;;
70740;Laerm;58330;51.888;11.052;2022-08-21T10:52:16;41.27;30.96;54.32;;
70740;Laerm;58330;51.888;11.052;2022-08-21T10:54:49;46.45;32.55;63.71;;
70740;Laerm;58330;51.888;11.052;2022-08-21T10:57:19;45.05;34.71;61.20;;
70740;Laerm;58330;51.888;11.052;2022-08-21T10:59:53;42.00;32.11;56.00;;
70740;Laerm;58330;51.888;11.052;2022-08-21T11:02:23;48.29;31.98;61.34;;
70740;Laerm;58330;51.888;11.052;2022-08-21T11:04:53;46.89;30.88;61.43;;
70740;Laerm;58330;51.888;11.052;2022-08-21T11:07:25;47.76;30.78;64.83;;
70740;Laerm;58330;51.888;11.052;2022-08-21T11:09:53;39.08;30.08;46.53;;
70740;Laerm;58330;51.888;11.052;2022-08-21T11:12:23;39.44;30.50;51.39;;
70740;Laerm;58330;51.888;11.052;2022-08-21T11:14:51;39.88;32.17;58.22;;
70740;Laerm;58330;51.888;11.052;2022-08-21T11:17:20;43.54;32.19;59.06;;
70740;Laerm;58330;51.888;11.052;2022-08-21T11:19:50;39.27;31.26;54.51;;
70740;Laerm;58330;51.888;11.052;2022-08-21T11:22:18;45.87;32.34;62.37;;
70740;Laerm;58330;51.888;11.052;2022-08-21T11:24:49;46.56;33.98;63.20;;
70740;Laerm;58330;51.888;11.052;2022-08-21T11:27:19;39.32;32.45;52.19;;
70740;Laerm;58330;51.888;11.052;2022-08-21T11:29:48;41.83;33.09;58.48;;
70740;Laerm;58330;51.888;11.052;2022-08-21T11:32:31;51.14;30.51;65.15;;
70740;Laerm;58330;51.888;11.052;2022-08-21T11:35:03;45.41;33.52;59.66;;
70740;Laerm;58330;51.888;11.052;2022-08-21T11:37:40;50.90;32.37;67.25;;
70740;Laerm;58330;51.888;11.052;2022-08-21T11:40:12;47.17;30.98;62.41;;
70740;Laerm;58330;51.888;11.052;2022-08-21T11:42:43;44.37;30.31;60.89;;
70740;Laerm;58330;51.888;11.052;2022-08-21T11:45:22;50.56;31.08;67.37;;
70740;Laerm;58330;51.888;11.052;2022-08-21T11:47:54;42.33;29.59;56.79;;
70740;Laerm;58330;51.888;11.052;2022-08-21T11:50:23;52.98;34.79;70.77;;
70740;Laerm;58330;51.888;11.052;2022-08-21T11:52:53;46.44;31.31;59.71;;
70740;Laerm;58330;51.888;11.052;2022-08-21T11:55:23;41.25;31.30;56.90;;
70740;Laerm;58330;51.888;11.052;2022-08-21T11:57:53;40.29;32.05;54.33;;
70740;Laerm;58330;51.888;11.052;2022-08-21T12:00:22;39.02;31.85;47.72;;
70740;Laerm;58330;51.888;11.052;2022-08-21T12:02:53;46.37;31.91;61.66;;
70740;Laerm;58330;51.888;11.052;2022-08-21T12:05:23;44.06;32.40;59.53;;
70740;Laerm;58330;51.888;11.052;2022-08-21T12:07:59;48.23;32.87;64.35;;
70740;Laerm;58330;51.888;11.052;2022-08-21T12:10:31;39.41;32.40;50.94;;
70740;Laerm;58330;51.888;11.052;2022-08-21T12:13:04;48.35;33.78;63.43;;
70740;Laerm;58330;51.888;11.052;2022-08-21T12:15:34;42.80;35.94;66.86;;
70740;Laerm;58330;51.888;11.052;2022-08-21T12:18:01;48.46;35.39;64.41;;
70740;Laerm;58330;51.888;11.052;2022-08-21T12:20:39;48.91;32.34;63.02;;
70740;Laerm;58330;51.888;11.052;2022-08-21T12:23:15;46.75;31.88;62.63;;
70740;Laerm;58330;51.888;11.052;2022-08-21T12:25:43;48.11;32.56;65.76;;
70740;Laerm;58330;51.888;11.052;2022-08-21T12:28:11;46.37;33.68;60.85;;
70740;Laerm;58330;51.888;11.052;2022-08-21T12:30:40;40.51;31.63;52.68;;
70740;Laerm;58330;51.888;11.052;2022-08-21T12:33:17;47.68;31.51;64.52;;
70740;Laerm;58330;51.888;11.052;2022-08-21T12:35:45;45.81;32.47;62.71;;
70740;Laerm;58330;51.888;11.052;2022-08-21T12:38:15;42.20;32.75;54.52;;
70740;Laerm;58330;51.888;11.052;2022-08-21T12:40:43;45.77;31.84;59.86;;
70740;Laerm;58330;51.888;11.052;2022-08-21T12:43:13;39.00;31.39;47.50;;
70740;Laerm;58330;51.888;11.052;2022-08-21T12:45:44;46.63;33.00;58.15;;
70740;Laerm;58330;51.888;11.052;2022-08-21T12:48:12;45.95;33.27;61.32;;
70740;Laerm;58330;51.888;11.052;2022-08-21T12:50:41;46.68;31.43;60.70;;
70740;Laerm;58330;51.888;11.052;2022-08-21T12:53:09;37.82;31.31;49.08;;
70740;Laerm;58330;51.888;11.052;2022-08-21T12:55:38;43.92;31.20;60.14;;
70740;Laerm;58330;51.888;11.052;2022-08-21T12:58:06;45.97;33.10;62.39;;
70740;Laerm;58330;51.888;11.052;2022-08-21T13:00:32;48.39;31.39;64.12;;
70740;Laerm;58330;51.888;11.052;2022-08-21T13:03:00;43.16;31.90;52.63;;
70740;Laerm;58330;51.888;11.052;2022-08-21T13:05:30;47.38;33.88;60.55;;
70740;Laerm;58330;51.888;11.052;2022-08-21T13:07:58;44.84;33.20;58.84;;
70740;Laerm;58330;51.888;11.052;2022-08-21T13:10:26;40.27;31.14;57.67;;
70740;Laerm;58330;51.888;11.052;2022-08-21T13:12:54;46.87;32.06;62.22;;
70740;Laerm;58330;51.888;11.052;2022-08-21T13:15:22;43.86;34.19;56.17;;
70740;Laerm;58330;51.888;11.052;2022-08-21T13:17:51;40.91;30.58;55.36;;
70740;Laerm;58330;51.888;11.052;2022-08-21T13:20:20;39.76;31.11;56.60;;
70740;Laerm;58330;51.888;11.052;2022-08-21T13:22:48;37.47;30.37;52.52;;
70740;Laerm;58330;51.888;11.052;2022-08-21T13:25:16;45.58;33.15;57.70;;
70740;Laerm;58330;51.888;11.052;2022-08-21T13:27:43;47.45;31.53;62.11;;
70740;Laerm;58330;51.888;11.052;2022-08-21T13:30:13;46.87;34.58;63.78;;
70740;Laerm;58330;51.888;11.052;2022-08-21T13:32:43;39.00;32.43;59.16;;
70740;Laerm;58330;51.888;11.052;2022-08-21T13:35:11;39.23;31.72;53.82;;
70740;Laerm;58330;51.888;11.052;2022-08-21T13:37:40;43.56;31.87;63.00;;